createdAt,value
2024-05-09T00:00:59.192Z,14.48
2024-05-09T00:03:01.108Z,13.95
2024-05-09T00:05:03.381Z,13.45
2024-05-09T00:07:07.892Z,13.27
2024-05-09T00:09:09.647Z,11.95
2024-05-09T00:11:14.434Z,13.23
2024-05-09T00:13:16.286Z,13.27
2024-05-09T00:15:18.027Z,14.93
2024-05-09T00:17:19.860Z,11.85
2024-05-09T00:19:21.755Z,11.43
2024-05-09T00:21:23.567Z,11.77
2024-05-09T00:23:29.137Z,11.38
2024-05-09T00:25:31.019Z,13.95
2024-05-09T00:27:32.780Z,13.90
2024-05-09T00:29:34.552Z,13.20
2024-05-09T00:31:36.306Z,14.18
2024-05-09T00:33:38.198Z,13.95
2024-05-09T00:35:41.411Z,14.30
2024-05-09T00:37:43.213Z,17.40
2024-05-09T00:39:47.576Z,14.63
2024-05-09T00:41:49.379Z,14.25
2024-05-09T00:43:51.177Z,13.23
2024-05-09T00:45:54.937Z,15.10
2024-05-09T00:47:58.046Z,12.90
2024-05-09T00:50:00.303Z,13.02
2024-05-09T00:52:02.850Z,14.60
2024-05-09T00:54:05.540Z,14.32
2024-05-09T00:56:11.895Z,13.18
2024-05-09T00:58:18.282Z,14.25
2024-05-09T01:00:27.264Z,15.70
2024-05-09T01:02:37.650Z,13.90
2024-05-09T01:04:39.483Z,12.38
2024-05-09T01:06:41.409Z,21.00
2024-05-09T01:08:43.304Z,15.13
2024-05-09T01:10:47.072Z,14.20
2024-05-09T01:12:52.783Z,13.30
2024-05-09T01:14:54.551Z,14.40
2024-05-09T01:16:56.597Z,14.80
2024-05-09T01:18:59.276Z,16.42
2024-05-09T01:21:01.199Z,18.13
2024-05-09T01:23:07.734Z,13.73
2024-05-09T01:25:09.547Z,16.10
2024-05-09T01:27:11.288Z,16.10
2024-05-09T01:29:13.202Z,14.00
2024-05-09T01:31:16.018Z,16.42
2024-05-09T01:33:17.957Z,15.40
2024-05-09T01:35:23.706Z,14.27
2024-05-09T01:37:25.643Z,15.65
2024-05-09T01:39:29.977Z,13.15
2024-05-09T01:41:31.924Z,16.67
2024-05-09T01:43:33.780Z,16.50
2024-05-09T01:45:35.497Z,15.10
2024-05-09T01:47:37.442Z,14.73
2024-05-09T01:49:40.088Z,18.70
2024-05-09T01:51:41.849Z,15.77
2024-05-09T01:53:43.727Z,17.38
2024-05-09T01:55:48.318Z,15.48
2024-05-09T01:57:50.625Z,15.80
2024-05-09T01:59:52.357Z,16.05
2024-05-09T02:01:56.992Z,17.45
2024-05-09T02:03:59.869Z,17.42
2024-05-09T02:06:01.969Z,14.88
2024-05-09T02:08:04.426Z,17.08
2024-05-09T02:10:10.972Z,17.63
2024-05-09T02:12:21.009Z,18.05
2024-05-09T02:14:22.978Z,16.05
2024-05-09T02:16:24.782Z,19.52
2024-05-09T02:18:26.714Z,19.73
2024-05-09T02:20:35.191Z,16.25
2024-05-09T02:22:38.346Z,17.00
2024-05-09T02:24:40.103Z,18.92
2024-05-09T02:26:41.841Z,16.58
2024-05-09T02:28:46.328Z,16.23
2024-05-09T02:30:48.129Z,17.85
2024-05-09T02:32:50.144Z,15.25
2024-05-09T02:34:52.127Z,16.85
2024-05-09T02:36:56.215Z,17.20
2024-05-09T02:38:57.991Z,15.98
2024-05-09T02:40:59.866Z,13.70
2024-05-09T02:43:01.632Z,15.48
2024-05-09T02:45:06.890Z,17.77
2024-05-09T02:47:08.979Z,20.27
2024-05-09T02:49:11.131Z,22.92
2024-05-09T02:51:13.186Z,20.98
2024-05-09T02:53:15.154Z,21.58
2024-05-09T02:55:16.906Z,25.90
2024-05-09T02:57:18.666Z,25.10
2024-05-09T02:59:20.475Z,23.17
2024-05-09T03:01:24.901Z,55.35
2024-05-09T03:03:27.130Z,43.67
2024-05-09T03:05:29.293Z,55.72
2024-05-09T03:07:31.069Z,40.50
2024-05-09T03:09:32.803Z,19.63
2024-05-09T03:11:34.746Z,20.67
2024-05-09T03:13:41.455Z,22.02
2024-05-09T03:15:43.589Z,19.90
2024-05-09T03:17:48.372Z,23.08
2024-05-09T03:19:50.364Z,21.02
2024-05-09T03:21:52.146Z,19.77
2024-05-09T03:23:54.013Z,23.02
2024-05-09T03:25:56.003Z,32.80
2024-05-09T03:27:57.765Z,18.92
2024-05-09T03:29:59.562Z,21.33
2024-05-09T03:32:01.402Z,21.70
2024-05-09T03:34:06.100Z,25.52
2024-05-09T03:36:11.125Z,21.55
2024-05-09T03:38:13.430Z,22.65
2024-05-09T03:40:20.875Z,32.03
2024-05-09T03:42:25.762Z,20.08
2024-05-09T03:44:27.612Z,23.52
2024-05-09T03:46:29.432Z,24.48
2024-05-09T03:48:34.917Z,41.90
2024-05-09T03:50:39.462Z,31.17
2024-05-09T03:52:41.311Z,27.25
2024-05-09T03:54:45.652Z,21.65
2024-05-09T03:56:47.529Z,23.70
2024-05-09T03:58:49.602Z,18.40
2024-05-09T04:00:51.453Z,17.05
2024-05-09T04:02:53.537Z,20.05
2024-05-09T04:04:55.374Z,20.75
2024-05-09T04:07:00.865Z,32.60
2024-05-09T04:09:02.658Z,29.27
2024-05-09T04:11:04.861Z,39.05
2024-05-09T04:13:06.752Z,17.92
2024-05-09T04:15:12.125Z,19.25
2024-05-09T04:17:15.151Z,23.63
2024-05-09T04:19:17.019Z,19.00
2024-05-09T04:21:18.816Z,30.48
2024-05-09T04:23:23.388Z,24.92
2024-05-09T04:25:25.215Z,17.60
2024-05-09T04:27:27.019Z,22.63
2024-05-09T04:29:28.965Z,18.90
2024-05-09T04:31:30.740Z,15.88
2024-05-09T04:33:32.917Z,43.38
2024-05-09T04:35:35.336Z,26.65
2024-05-09T04:37:37.606Z,32.97
2024-05-09T04:39:42.007Z,47.35
2024-05-09T04:41:43.843Z,59.25
2024-05-09T04:43:45.875Z,51.78
2024-05-09T04:45:47.860Z,53.47
2024-05-09T04:47:49.904Z,56.75
2024-05-09T04:49:51.865Z,36.42
2024-05-09T04:51:53.639Z,29.42
2024-05-09T04:53:55.373Z,30.70
2024-05-09T04:55:59.971Z,47.15
2024-05-09T04:58:01.974Z,31.08
2024-05-09T05:00:09.335Z,18.33
2024-05-09T05:02:19.122Z,17.60
2024-05-09T05:04:20.980Z,21.73
2024-05-09T05:06:22.795Z,20.30
2024-05-09T05:08:24.607Z,19.67
2024-05-09T05:10:33.757Z,14.68
2024-05-09T05:12:59.337Z,28.92
2024-05-09T05:15:01.129Z,15.63
2024-05-09T05:17:02.972Z,17.23
2024-05-09T05:19:07.160Z,19.67
2024-05-09T05:21:11.543Z,16.77
2024-05-09T05:23:15.142Z,19.33
2024-05-09T05:25:17.131Z,12.32
2024-05-09T05:27:18.980Z,20.35
2024-05-09T05:29:23.487Z,20.60
2024-05-09T05:31:25.340Z,33.20
2024-05-09T05:33:27.319Z,34.85
2024-05-09T05:35:29.290Z,23.63
2024-05-09T05:37:31.128Z,25.65
2024-05-09T05:39:32.948Z,41.50
2024-05-09T05:41:34.832Z,45.75
2024-05-09T05:43:36.665Z,31.48
2024-05-09T05:45:41.162Z,42.25
2024-05-09T05:47:43.064Z,50.25
2024-05-09T05:49:44.942Z,42.47
2024-05-09T05:51:46.770Z,38.40
2024-05-09T05:53:48.627Z,41.35
2024-05-09T05:55:50.496Z,74.10
2024-05-09T05:57:52.311Z,100.72
2024-05-09T05:59:54.199Z,46.00
2024-05-09T06:01:58.669Z,63.65
2024-05-09T06:04:00.637Z,95.90
2024-05-09T06:06:03.078Z,69.95
2024-05-09T06:08:05.862Z,59.75
2024-05-09T06:10:16.968Z,56.88
2024-05-09T06:12:23.090Z,42.55
2024-05-09T06:14:24.966Z,58.67
2024-05-09T06:16:26.793Z,60.00
2024-05-09T06:18:31.387Z,60.85
2024-05-09T06:20:36.552Z,37.85
2024-05-09T06:22:40.004Z,62.67
2024-05-09T06:24:41.732Z,55.85
2024-05-09T06:26:43.666Z,39.60
2024-05-09T06:28:45.504Z,35.47
2024-05-09T06:30:47.271Z,41.05
2024-05-09T06:32:49.135Z,46.50
2024-05-09T06:34:53.572Z,44.80
2024-05-09T06:36:55.306Z,37.78
2024-05-09T06:38:57.076Z,59.97
2024-05-09T06:40:58.869Z,55.47
2024-05-09T06:43:00.780Z,35.72
2024-05-09T06:45:03.035Z,45.05
2024-05-09T06:47:04.954Z,54.28
2024-05-09T06:49:08.850Z,51.75
2024-05-09T06:51:13.440Z,34.33
2024-05-09T06:53:16.475Z,35.63
2024-05-09T06:55:18.280Z,43.97
2024-05-09T06:57:21.352Z,45.13
2024-05-09T06:59:23.271Z,42.13
2024-05-09T07:01:25.174Z,41.90
2024-05-09T07:03:27.078Z,42.75
2024-05-09T07:05:29.564Z,53.88
2024-05-09T07:07:34.135Z,50.72
2024-05-09T07:09:36.086Z,54.50
2024-05-09T07:11:38.164Z,65.18
2024-05-09T07:13:40.060Z,63.33
2024-05-09T07:15:42.248Z,57.45
2024-05-09T07:17:44.278Z,61.50
2024-05-09T07:19:46.349Z,63.15
2024-05-09T07:21:48.189Z,60.30
2024-05-09T07:23:53.100Z,57.20
2024-05-09T07:25:55.015Z,54.33
2024-05-09T07:27:56.844Z,53.20
2024-05-09T07:29:59.081Z,45.10
2024-05-09T07:32:00.885Z,48.33
2024-05-09T07:34:02.808Z,49.65
2024-05-09T07:36:05.086Z,57.25
2024-05-09T07:38:06.871Z,59.03
2024-05-09T07:40:17.695Z,71.75
2024-05-09T07:42:26.387Z,72.57
2024-05-09T07:44:28.327Z,73.05
2024-05-09T07:47:36.978Z,74.82
2024-05-09T07:53:36.131Z,66.70
2024-05-09T07:55:27.341Z,63.70
2024-05-09T07:57:29.276Z,63.53
2024-05-09T07:59:33.286Z,57.70
2024-05-09T08:01:36.961Z,64.47
2024-05-09T08:03:38.952Z,49.40
2024-05-09T08:05:41.271Z,44.67
2024-05-09T08:07:45.224Z,41.42
2024-05-09T08:09:47.060Z,44.55
2024-05-09T08:11:54.891Z,40.95
2024-05-09T08:13:56.646Z,41.78
2024-05-09T08:15:58.502Z,35.85
2024-05-09T08:18:00.656Z,33.63
2024-05-09T08:20:05.515Z,40.47
2024-05-09T08:22:07.732Z,37.97
2024-05-09T08:24:10.538Z,31.08
2024-05-09T08:26:12.559Z,29.83
2024-05-09T08:28:17.186Z,26.40
2024-05-09T08:30:25.271Z,24.98
2024-05-09T08:32:35.293Z,19.13
2024-05-09T08:34:37.162Z,19.52
2024-05-09T08:36:40.798Z,20.30
2024-05-09T08:38:42.676Z,18.08
2024-05-09T08:40:47.134Z,21.95
2024-05-09T08:42:50.105Z,21.42
2024-05-09T08:44:54.609Z,20.02
2024-05-09T08:46:56.817Z,18.98
2024-05-09T08:49:00.888Z,20.10
2024-05-09T08:51:03.169Z,16.02
2024-05-09T08:53:05.586Z,16.17
2024-05-09T08:55:08.041Z,16.38
2024-05-09T08:57:14.824Z,12.70
2024-05-09T08:59:28.623Z,14.63
2024-05-09T09:01:58.122Z,15.38
2024-05-09T09:04:17.173Z,15.50
2024-05-09T09:06:22.108Z,17.83
2024-05-09T09:08:26.836Z,20.77
2024-05-09T09:10:32.864Z,14.98
2024-05-09T09:12:43.890Z,13.98
2024-05-09T09:14:48.766Z,14.02
2024-05-09T09:16:56.583Z,14.57
2024-05-09T09:18:58.462Z,12.55
2024-05-09T09:21:00.389Z,12.93
2024-05-09T09:23:07.878Z,15.27
2024-05-09T09:25:12.212Z,13.50
2024-05-09T09:27:14.481Z,14.52
2024-05-09T09:29:21.162Z,13.27
2024-05-09T09:31:40.413Z,15.88
2024-05-09T09:33:45.105Z,14.40
2024-05-09T09:35:47.082Z,11.95
2024-05-09T09:37:53.931Z,16.63
2024-05-09T09:39:59.173Z,17.88
2024-05-09T09:42:04.392Z,15.38
2024-05-09T09:44:09.101Z,14.93
2024-05-09T09:46:12.923Z,15.32
2024-05-09T09:48:22.745Z,14.20
2024-05-09T09:50:36.629Z,15.02
2024-05-09T09:52:39.069Z,14.82
2024-05-09T09:54:44.043Z,14.48
2024-05-09T09:56:48.573Z,14.48
2024-05-09T09:58:53.023Z,12.15
2024-05-09T10:00:55.070Z,14.50
2024-05-09T10:03:06.795Z,13.73
2024-05-09T10:05:17.575Z,14.20
2024-05-09T10:07:22.710Z,17.20
2024-05-09T10:09:24.647Z,11.90
2024-05-09T10:11:31.600Z,10.70
2024-05-09T10:13:34.840Z,12.88
2024-05-09T10:15:52.820Z,11.45
2024-05-09T10:18:06.337Z,14.68
2024-05-09T10:20:14.888Z,14.55
2024-05-09T10:22:33.716Z,14.27
2024-05-09T10:24:55.371Z,12.48
2024-05-09T10:27:06.032Z,13.48
2024-05-09T10:29:14.609Z,14.95
2024-05-09T10:33:24.257Z,12.20
2024-05-09T10:35:26.815Z,11.75
2024-05-09T10:37:35.595Z,14.15
2024-05-09T10:39:38.675Z,14.80
2024-05-09T10:41:40.591Z,12.65
2024-05-09T10:43:42.671Z,12.88
2024-05-09T10:45:49.254Z,11.60
2024-05-09T10:47:51.367Z,11.30
2024-05-09T10:49:55.450Z,13.32
2024-05-09T10:52:00.873Z,14.73
2024-05-09T10:56:30.332Z,14.25
2024-05-09T10:58:35.216Z,11.88
2024-05-09T11:00:37.684Z,11.55
2024-05-09T11:02:42.808Z,11.80
2024-05-09T11:04:47.979Z,15.73
2024-05-09T11:06:55.131Z,11.90
2024-05-09T11:08:57.503Z,11.35
2024-05-09T11:11:17.208Z,11.25
2024-05-09T11:13:32.404Z,10.13
2024-05-09T11:15:41.116Z,12.30
2024-05-09T11:17:44.973Z,14.57
2024-05-09T11:19:50.585Z,14.98
2024-05-09T11:21:54.147Z,9.80
2024-05-09T11:23:57.163Z,12.52
2024-05-09T11:26:01.865Z,10.40
2024-05-09T11:28:25.542Z,11.75
2024-05-09T11:30:39.730Z,10.90
2024-05-09T11:32:55.091Z,8.27
2024-05-09T11:34:56.921Z,9.15
2024-05-09T11:36:58.844Z,9.05
2024-05-09T11:39:02.870Z,8.23
2024-05-09T11:41:17.171Z,8.48
2024-05-09T11:43:22.152Z,11.57
2024-05-09T11:45:24.067Z,8.98
2024-05-09T11:47:28.909Z,10.35
2024-05-09T11:49:36.942Z,9.45
2024-05-09T11:51:38.828Z,9.55
2024-05-09T11:53:43.217Z,11.40
2024-05-09T11:55:45.001Z,9.93
2024-05-09T11:57:49.867Z,8.15
2024-05-09T11:59:51.679Z,8.93
2024-05-09T12:01:55.221Z,9.38
2024-05-09T12:03:57.258Z,10.18
2024-05-09T12:05:59.405Z,8.23
2024-05-09T12:08:04.921Z,10.88
2024-05-09T12:10:11.914Z,8.55
2024-05-09T12:12:20.409Z,7.97
2024-05-09T12:14:28.004Z,9.30
2024-05-09T12:16:29.954Z,9.55
2024-05-09T12:18:40.731Z,7.15
2024-05-09T12:20:43.031Z,8.68
2024-05-09T12:22:44.760Z,7.50
2024-05-09T12:24:46.589Z,8.45
2024-05-09T12:26:48.462Z,6.32
2024-05-09T12:28:50.252Z,8.98
2024-05-09T12:30:54.726Z,7.00
2024-05-09T12:32:56.635Z,7.43
2024-05-09T12:34:58.500Z,7.22
2024-05-09T12:37:00.293Z,8.77
2024-05-09T12:39:02.788Z,7.03
2024-05-09T12:41:04.970Z,6.93
2024-05-09T12:43:07.423Z,6.47
2024-05-09T12:45:10.103Z,9.55
2024-05-09T12:47:14.734Z,7.07
2024-05-09T12:49:18.871Z,6.85
2024-05-09T12:51:21.399Z,6.68
2024-05-09T12:53:23.266Z,6.40
2024-05-09T12:55:25.146Z,9.20
2024-05-09T12:57:29.021Z,6.88
2024-05-09T12:59:30.894Z,10.75
2024-05-09T13:01:32.820Z,5.65
2024-05-09T13:03:37.420Z,7.15
2024-05-09T13:05:41.393Z,7.07
2024-05-09T13:07:43.551Z,5.10
2024-05-09T13:09:45.494Z,7.97
2024-05-09T13:11:47.379Z,7.50
2024-05-09T13:13:49.169Z,5.00
2024-05-09T13:15:51.151Z,5.65
2024-05-09T13:17:53.082Z,5.25
2024-05-09T13:19:57.510Z,7.13
2024-05-09T13:21:59.401Z,5.80
2024-05-09T13:24:01.200Z,5.28
2024-05-09T13:26:02.963Z,5.10
2024-05-09T13:28:05.584Z,5.43
2024-05-09T13:30:11.886Z,7.32
2024-05-09T13:32:16.544Z,4.78
2024-05-09T13:34:18.482Z,5.00
2024-05-09T13:36:24.345Z,5.05
2024-05-09T13:38:26.211Z,5.07
2024-05-09T13:40:34.365Z,5.70
2024-05-09T13:42:38.094Z,5.97
2024-05-09T13:44:39.890Z,5.80
2024-05-09T13:46:41.761Z,4.78
2024-05-09T13:48:43.692Z,5.18
2024-05-09T13:50:45.606Z,6.05
2024-05-09T13:52:50.073Z,7.10
2024-05-09T13:54:52.018Z,5.20
2024-05-09T13:56:53.896Z,4.40
2024-05-09T13:58:55.794Z,4.43
2024-05-09T14:01:00.538Z,4.43
2024-05-09T14:03:02.557Z,5.55
2024-05-09T14:05:04.995Z,4.63
2024-05-09T14:07:07.591Z,4.93
2024-05-09T14:09:12.178Z,5.05
2024-05-09T14:11:14.042Z,4.55
2024-05-09T14:13:16.156Z,4.97
2024-05-09T14:15:18.307Z,3.95
2024-05-09T14:17:20.254Z,6.35
2024-05-09T14:19:22.153Z,5.13
2024-05-09T14:21:23.939Z,5.57
2024-05-09T14:23:25.916Z,5.07
2024-05-09T14:25:35.096Z,8.32
2024-05-09T14:27:42.658Z,5.38
2024-05-09T14:29:44.455Z,6.68
2024-05-09T14:31:46.468Z,6.35
2024-05-09T14:33:48.390Z,5.40
2024-05-09T14:35:50.286Z,8.32
2024-05-09T14:37:52.182Z,5.03
2024-05-09T14:39:54.175Z,4.53
2024-05-09T14:41:58.580Z,5.03
2024-05-09T14:44:02.774Z,4.80
2024-05-09T14:46:04.980Z,4.28
2024-05-09T14:48:08.099Z,5.80
2024-05-09T14:50:16.797Z,5.55
2024-05-09T14:52:24.983Z,4.35
2024-05-09T14:54:26.752Z,4.07
2024-05-09T14:56:28.586Z,5.53
2024-05-09T14:58:33.034Z,4.38
2024-05-09T15:00:40.116Z,4.10
2024-05-09T15:02:44.002Z,3.90
2024-05-09T15:04:45.934Z,5.88
2024-05-09T15:06:48.775Z,5.55
2024-05-09T15:08:55.336Z,3.90
2024-05-09T15:10:57.401Z,3.80
2024-05-09T15:12:59.354Z,3.83
2024-05-09T15:15:04.671Z,4.03
2024-05-09T15:17:09.650Z,3.78
2024-05-09T15:19:11.772Z,7.00
2024-05-09T15:21:13.744Z,5.07
2024-05-09T15:23:15.559Z,5.55
2024-05-09T15:25:17.417Z,5.68
2024-05-09T15:27:19.737Z,4.43
2024-05-09T15:29:21.720Z,3.28
2024-05-09T15:31:26.234Z,4.60
2024-05-09T15:33:28.170Z,4.45
2024-05-09T15:35:30.015Z,4.05
2024-05-09T15:37:32.038Z,5.75
2024-05-09T15:39:36.871Z,4.78
2024-05-09T15:41:38.723Z,5.00
2024-05-09T15:43:40.561Z,7.05
2024-05-09T15:45:42.476Z,5.35
2024-05-09T15:47:47.073Z,3.65
2024-05-09T15:49:50.693Z,3.20
2024-05-09T15:51:52.583Z,4.80
2024-05-09T15:53:54.335Z,4.68
2024-05-09T15:55:59.071Z,4.10
2024-05-09T15:58:01.759Z,4.03
2024-05-09T16:00:05.942Z,4.13
2024-05-09T16:04:15.766Z,4.65
2024-05-09T16:06:17.629Z,5.85
2024-05-09T16:08:19.442Z,6.07
2024-05-09T16:10:25.935Z,4.72
2024-05-09T16:12:33.362Z,4.10
2024-05-09T16:14:35.163Z,4.18
2024-05-09T16:16:37.063Z,6.43
2024-05-09T16:18:38.965Z,5.03
2024-05-09T16:20:44.951Z,7.32
2024-05-09T16:22:48.390Z,6.77
2024-05-09T16:24:50.216Z,4.10
2024-05-09T16:26:52.149Z,3.80
2024-05-09T16:28:53.909Z,4.30
2024-05-09T16:30:57.142Z,3.72
2024-05-09T16:32:59.069Z,11.48
2024-05-09T16:35:00.899Z,9.35
2024-05-09T16:37:10.305Z,5.80
2024-05-09T16:39:12.172Z,6.03
2024-05-09T16:41:15.549Z,4.75
2024-05-09T16:43:17.620Z,4.78
2024-05-09T16:45:19.617Z,5.03
2024-05-09T16:47:21.504Z,5.88
2024-05-09T16:49:23.962Z,5.63
2024-05-09T16:51:26.268Z,9.27
2024-05-09T16:53:30.623Z,6.95
2024-05-09T16:55:35.762Z,6.18
2024-05-09T16:57:38.325Z,5.72
2024-05-09T16:59:40.171Z,7.25
2024-05-09T17:01:41.989Z,9.32
2024-05-09T17:03:44.129Z,7.55
2024-05-09T17:05:49.120Z,7.45
2024-05-09T17:07:51.032Z,8.85
2024-05-09T17:09:55.430Z,9.85
2024-05-09T17:11:57.193Z,7.95
2024-05-09T17:13:58.982Z,7.30
2024-05-09T17:16:00.825Z,8.07
2024-05-09T17:18:03.329Z,8.57
2024-05-09T17:20:08.595Z,7.07
2024-05-09T17:22:14.988Z,12.05
2024-05-09T17:24:17.944Z,11.10
2024-05-09T17:26:22.582Z,6.70
2024-05-09T17:28:26.571Z,9.65
2024-05-09T17:30:32.703Z,8.32
2024-05-09T17:32:38.061Z,7.22
2024-05-09T17:34:39.948Z,9.38
2024-05-09T17:36:41.964Z,8.27
2024-05-09T17:38:43.730Z,8.93
2024-05-09T17:40:45.605Z,6.38
2024-05-09T17:42:49.989Z,8.43
2024-05-09T17:44:52.056Z,7.93
2024-05-09T17:46:53.961Z,7.28
2024-05-09T17:48:57.369Z,6.85
2024-05-09T17:51:00.674Z,6.47
2024-05-09T17:53:02.672Z,6.45
2024-05-09T17:55:05.310Z,7.78
2024-05-09T17:57:08.099Z,12.73
2024-05-09T17:59:12.870Z,7.25
2024-05-09T18:01:14.763Z,7.53
2024-05-09T18:03:16.706Z,6.28
2024-05-09T18:05:18.674Z,10.35
2024-05-09T18:07:20.578Z,9.48
2024-05-09T18:09:22.382Z,7.60
2024-05-09T18:11:25.095Z,5.90
2024-05-09T18:13:27.057Z,9.63
2024-05-09T18:15:31.640Z,8.68
2024-05-09T18:17:34.320Z,15.10
2024-05-09T18:19:36.364Z,10.00
2024-05-09T18:21:38.271Z,6.35
2024-05-09T18:23:40.083Z,6.78
2024-05-09T18:25:41.864Z,7.72
2024-05-09T18:27:46.533Z,6.47
2024-05-09T18:29:48.320Z,9.48
2024-05-09T18:31:52.738Z,7.93
2024-05-09T18:33:54.990Z,7.15
2024-05-09T18:35:56.985Z,7.00
2024-05-09T18:37:58.978Z,9.18
2024-05-09T18:40:00.840Z,11.40
2024-05-09T18:42:02.745Z,9.02
2024-05-09T18:44:04.671Z,11.02
2024-05-09T18:46:06.863Z,7.60
2024-05-09T18:48:12.241Z,7.90
2024-05-09T18:50:20.749Z,8.55
2024-05-09T18:52:30.479Z,9.68
2024-05-09T18:54:32.323Z,7.72
2024-05-09T18:56:35.027Z,10.25
2024-05-09T18:58:36.876Z,10.20
2024-05-09T19:00:41.422Z,13.55
2024-05-09T19:02:46.142Z,9.80
2024-05-09T19:04:51.216Z,15.02
2024-05-09T19:06:53.379Z,16.70
2024-05-09T19:08:55.602Z,10.20
2024-05-09T19:10:58.382Z,8.05
2024-05-09T19:13:00.296Z,7.95
2024-05-09T19:15:02.398Z,8.10
2024-05-09T19:17:04.704Z,9.65
2024-05-09T19:19:06.887Z,10.30
2024-05-09T19:21:11.670Z,14.75
2024-05-09T19:23:13.610Z,10.02
2024-05-09T19:25:15.490Z,9.07
2024-05-09T19:27:17.350Z,8.15
2024-05-09T19:29:19.133Z,11.05
2024-05-09T19:31:21.074Z,9.48
2024-05-09T19:33:22.928Z,7.30
2024-05-09T19:35:24.822Z,8.32
2024-05-09T19:37:29.627Z,10.00
2024-05-09T19:39:34.290Z,8.98
2024-05-09T19:41:36.078Z,8.55
2024-05-09T19:43:37.880Z,9.30
2024-05-09T19:45:39.868Z,10.73
2024-05-09T19:47:42.305Z,9.55
2024-05-09T19:49:44.241Z,8.55
2024-05-09T19:51:46.044Z,8.95
2024-05-09T19:53:50.787Z,10.52
2024-05-09T19:55:52.634Z,8.95
2024-05-09T19:57:54.458Z,9.98
2024-05-09T19:59:56.264Z,8.82
2024-05-09T20:01:58.169Z,8.82
2024-05-09T20:04:00.419Z,13.32
2024-05-09T20:06:02.829Z,8.73
2024-05-09T20:08:06.073Z,8.75
2024-05-09T20:10:20.144Z,8.68
2024-05-09T20:12:25.313Z,10.48
2024-05-09T20:14:27.015Z,7.93
2024-05-09T20:16:28.836Z,8.30
2024-05-09T20:18:30.730Z,8.93
2024-05-09T20:20:38.210Z,8.38
2024-05-09T20:22:44.931Z,8.88
2024-05-09T20:24:46.692Z,8.95
2024-05-09T20:26:51.122Z,10.07
2024-05-09T20:28:52.927Z,10.43
2024-05-09T20:30:54.731Z,10.05
2024-05-09T20:32:56.729Z,14.18
2024-05-09T20:34:58.547Z,9.27
2024-05-09T20:37:00.410Z,8.18
2024-05-09T20:39:02.465Z,8.52
2024-05-09T20:41:04.565Z,11.55
2024-05-09T20:43:11.981Z,9.48
2024-05-09T20:45:14.097Z,9.20
2024-05-09T20:47:15.892Z,12.40
2024-05-09T20:49:17.976Z,9.02
2024-05-09T20:51:19.954Z,7.30
2024-05-09T20:53:21.765Z,7.60
2024-05-09T20:55:23.587Z,9.27
2024-05-09T20:57:25.410Z,11.25
2024-05-09T20:59:29.800Z,8.38
2024-05-09T21:01:31.645Z,8.25
2024-05-09T21:03:35.767Z,8.32
2024-05-09T21:05:37.811Z,7.60
2024-05-09T21:07:39.839Z,7.63
2024-05-09T21:09:41.719Z,8.60
2024-05-09T21:11:43.592Z,7.32
2024-05-09T21:13:45.350Z,8.07
2024-05-09T21:15:49.748Z,8.25
2024-05-09T21:17:51.683Z,10.10
2024-05-09T21:19:53.669Z,8.70
2024-05-09T21:21:55.407Z,9.90
2024-05-09T21:23:57.160Z,8.57
2024-05-09T21:25:58.934Z,11.20
2024-05-09T21:28:01.166Z,10.20
2024-05-09T21:30:04.483Z,10.45
2024-05-09T21:32:10.592Z,8.93
2024-05-09T21:34:12.534Z,10.77
2024-05-09T21:36:14.417Z,17.02
2024-05-09T21:38:16.402Z,11.35
2024-05-09T21:40:27.019Z,12.15
2024-05-09T21:42:35.330Z,11.60
2024-05-09T21:44:37.166Z,15.30
2024-05-09T21:46:39.015Z,11.40
2024-05-09T21:48:43.584Z,13.95
2024-05-09T21:50:45.384Z,15.15
2024-05-09T21:52:47.202Z,11.25
2024-05-09T21:54:48.980Z,11.38
2024-05-09T21:56:50.749Z,9.65
2024-05-09T21:58:52.547Z,11.20
2024-05-09T22:00:54.359Z,14.77
2024-05-09T22:02:56.263Z,16.45
2024-05-09T22:05:01.218Z,17.40
2024-05-09T22:07:04.748Z,26.67
2024-05-09T22:09:06.597Z,45.58
2024-05-09T22:11:08.712Z,18.05
2024-05-09T22:13:10.660Z,12.27
2024-05-09T22:15:12.606Z,12.77
2024-05-09T22:17:14.438Z,11.60
2024-05-09T22:19:16.271Z,12.85
2024-05-09T22:21:20.665Z,10.80
2024-05-09T22:23:22.407Z,12.73
2024-05-09T22:25:26.047Z,10.77
2024-05-09T22:27:29.032Z,11.10
2024-05-09T22:29:30.782Z,11.80
2024-05-09T22:31:32.577Z,12.68
2024-05-09T22:33:34.645Z,10.63
2024-05-09T22:35:36.562Z,11.27
2024-05-09T22:37:40.925Z,12.68
2024-05-09T22:39:42.666Z,12.65
2024-05-09T22:41:45.533Z,11.60
2024-05-09T22:43:47.303Z,18.02
2024-05-09T22:45:49.074Z,14.57
2024-05-09T22:47:51.047Z,14.48
2024-05-09T22:49:52.967Z,11.68
2024-05-09T22:51:54.776Z,12.70
2024-05-09T22:53:59.280Z,10.60
2024-05-09T22:56:01.048Z,11.23
2024-05-09T22:58:02.837Z,12.43
2024-05-09T23:00:07.925Z,11.60
2024-05-09T23:02:11.661Z,14.35
2024-05-09T23:04:13.607Z,12.30
2024-05-09T23:06:15.503Z,10.80
2024-05-09T23:08:17.260Z,11.02
2024-05-09T23:10:28.330Z,10.50
2024-05-09T23:12:36.509Z,11.82
2024-05-09T23:14:38.289Z,10.13
2024-05-09T23:16:40.035Z,12.02
2024-05-09T23:18:41.942Z,11.98
2024-05-09T23:20:43.823Z,13.63
2024-05-09T23:22:46.310Z,11.00
2024-05-09T23:24:48.231Z,12.90
2024-05-09T23:26:52.689Z,10.13
2024-05-09T23:28:54.439Z,13.10
2024-05-09T23:30:56.258Z,11.20
2024-05-09T23:32:58.166Z,11.18
2024-05-09T23:35:00.265Z,13.18
2024-05-09T23:37:02.333Z,11.23
2024-05-09T23:39:05.193Z,11.02
2024-05-09T23:41:07.242Z,11.95
2024-05-09T23:43:12.705Z,11.38
2024-05-09T23:45:15.298Z,11.65
2024-05-09T23:47:17.340Z,12.18
2024-05-09T23:49:19.205Z,11.15
2024-05-09T23:51:21.057Z,10.45
2024-05-09T23:53:22.801Z,11.43
2024-05-09T23:55:24.582Z,12.70
2024-05-09T23:57:26.423Z,11.27
2024-05-09T23:59:30.821Z,11.98
